Time;durP1;ratioP1;P1;durP2;ratioP2;P2;SDS_P1;SDS_P2;PMS_P1;PMS_P2;Temp;Humidity;BMP_temperature;BMP_pressure;BME280_temperature;BME280_humidity;BME280_pressure;Samples;Min_cycle;Max_cycle;Signal;HPM_P1;HPM_P2
2022/01/26 00:07:20;;;;;;;44.10;17.50;;;;;;;1.04;66.78;100713.88;5008352;28;20708;-67
2022/01/26 00:09:47;;;;;;;48.70;18.20;;;;;;;-0.13;71.61;100755.13;5008069;28;20246;-66
2022/01/26 00:12:13;;;;;;;56.47;18.73;;;;;;;1.19;65.91;100694.59;5030326;28;20230;-66
2022/01/26 00:14:43;;;;;;;60.70;20.87;;;;;;;1.57;64.46;100694.22;5024980;28;20220;-67
2022/01/26 00:17:11;;;;;;;55.23;19.47;;;;;;;1.74;63.36;100680.03;5015003;28;20222;-66
2022/01/26 00:20:20;;;;;;;68.20;19.37;;;;;;;1.64;63.83;100678.06;5021700;28;20233;-66
2022/01/26 00:41:12;;;;;;;70.20;21.50;;;;;;;-2.68;79.32;100688.31;5010935;28;20616;-66
2022/01/26 00:43:44;;;;;;;51.37;17.87;;;;;;;-0.23;72.46;100701.44;5010265;28;20236;-66
2022/01/26 00:46:12;;;;;;;42.83;18.20;;;;;;;-0.07;70.62;100670.03;5007400;28;20225;-67
2022/01/26 00:48:41;;;;;;;55.63;20.07;;;;;;;-2.17;79.66;100760.22;5017466;28;20229;-66
2022/01/26 00:51:08;;;;;;;50.83;17.87;;;;;;;-0.56;74.18;100710.09;5029589;28;20221;-66
2022/01/26 00:53:41;;;;;;;47.10;18.17;;;;;;;-0.40;71.36;100694.44;5029844;28;20235;-66
2022/01/26 00:56:08;;;;;;;51.87;18.00;;;;;;;-0.10;70.31;100680.69;5030123;28;20221;-67
2022/01/26 00:58:35;;;;;;;46.17;18.93;;;;;;;0.30;68.27;100662.81;5029301;28;20718;-66
2022/01/26 01:01:04;;;;;;;50.97;20.13;;;;;;;0.66;67.54;100661.72;5030079;28;20229;-66
2022/01/26 01:03:36;;;;;;;62.20;18.77;;;;;;;-0.38;72.02;100729.28;5029034;28;20671;-67
2022/01/26 01:06:10;;;;;;;47.07;19.20;;;;;;;-0.43;71.91;100728.66;5030168;28;20245;-66
2022/01/26 01:08:40;;;;;;;87.07;20.23;;;;;;;-0.01;68.43;100674.94;5029658;28;20247;-66
2022/01/26 01:11:09;;;;;;;43.63;19.23;;;;;;;-0.44;71.20;100719.13;5028454;28;20220;-67
2022/01/26 01:13:39;;;;;;;55.03;19.50;;;;;;;0.42;68.11;100677.03;5029470;28;20251;-66
2022/01/26 01:16:09;;;;;;;57.70;19.97;;;;;;;-0.01;67.96;100667.06;5013937;28;20232;-67
2022/01/26 01:31:40;;;;;;;57.00;20.97;;;;;;;0.22;68.27;100683.38;5013950;28;20220;-66
2022/01/26 01:34:08;;;;;;;52.30;20.37;;;;;;;0.57;68.04;100701.59;5013699;28;20229;-67
2022/01/26 01:36:37;;;;;;;51.30;20.80;;;;;;;0.33;68.10;100693.28;5019739;28;20228;-66
2022/01/26 01:39:08;;;;;;;45.83;20.63;;;;;;;0.71;66.89;100679.88;5028713;28;20234;-67
2022/01/26 01:41:40;;;;;;;55.77;20.47;;;;;;;0.41;67.92;100697.19;5019119;28;20248;-66
2022/01/26 01:44:09;;;;;;;42.13;18.63;;;;;;;0.12;68.43;100690.03;5017588;28;20229;-66
2022/01/26 01:46:38;;;;;;;54.87;20.67;;;;;;;-0.10;68.97;100712.16;5005415;28;20232;-66
2022/01/26 01:49:06;;;;;;;50.13;21.67;;;;;;;0.49;68.27;100709.06;5018019;28;20226;-66
2022/01/26 01:51:37;;;;;;;49.40;19.70;;;;;;;0.32;68.39;100702.97;5013181;28;20234;-67
2022/01/26 01:54:14;;;;;;;47.20;19.40;;;;;;;0.43;67.33;100695.31;5028124;28;20241;-66
2022/01/26 01:56:49;;;;;;;49.80;19.00;;;;;;;-0.32;68.56;100694.06;5029316;28;20231;-66
2022/01/26 01:59:16;;;;;;;50.53;19.90;;;;;;;0.28;68.65;100724.19;5018403;28;20225;-66
2022/01/26 02:01:43;;;;;;;80.57;18.50;;;;;;;-2.91;79.10;100679.66;5009327;28;20269;-66
2022/01/26 02:04:10;;;;;;;66.17;17.57;;;;;;;-2.58;77.03;100695.72;5008572;28;20214;-66
2022/01/26 02:06:37;;;;;;;52.77;19.10;;;;;;;-2.46;79.86;100780.56;5009423;28;20225;-66
2022/01/26 02:09:04;;;;;;;56.83;18.97;;;;;;;0.10;70.58;100726.00;5009234;28;20243;-66
2022/01/26 02:11:31;;;;;;;42.43;17.57;;;;;;;0.32;68.30;100699.47;5007775;28;20227;-66
2022/01/26 02:14:10;;;;;;;42.77;19.60;;;;;;;-0.71;69.38;100687.25;5013353;28;20233;-66
2022/01/26 02:16:48;;;;;;;79.17;20.17;;;;;;;-3.33;81.29;100668.25;5021800;28;20226;-66
2022/01/26 02:19:44;;;;;;;65.33;18.07;;;;;;;-3.60;82.15;100643.25;5028792;28;20236;-66
2022/01/26 02:55:10;;;;;;;69.90;18.33;;;;;;;-2.84;79.08;100709.81;5028001;28;20220;-66
2022/01/26 03:00:28;;;;;;;43.97;17.00;;;;;;;-3.18;81.13;100705.09;5000801;28;20232;-66
2022/01/26 03:02:59;;;;;;;39.50;18.20;;;;;;;-2.12;79.59;100746.97;5007586;28;20615;-66
2022/01/26 03:05:33;;;;;;;69.83;17.50;;;;;;;-3.16;81.99;100713.72;5008396;28;20226;-66
2022/01/26 03:08:05;;;;;;;49.83;18.37;;;;;;;-2.86;79.46;100709.03;5008004;28;20233;-66
2022/01/26 03:10:41;;;;;;;57.63;19.37;;;;;;;-2.12;76.75;100702.50;5008420;28;20262;-66
2022/01/26 03:13:17;;;;;;;46.20;17.13;;;;;;;-3.28;82.29;100705.44;5007975;28;20225;-66
2022/01/26 03:15:53;;;;;;;45.40;17.30;;;;;;;-2.43;82.21;100756.06;5005801;28;20245;-66
2022/01/26 03:18:41;;;;;;;52.47;18.33;;;;;;;-1.70;76.08;100691.91;5008717;28;20229;-66
2022/01/26 03:21:11;;;;;;;45.67;19.03;;;;;;;-2.88;79.45;100678.69;5007477;28;20611;-65
2022/01/26 03:29:25;;;;;;;57.27;18.00;;;;;;;-3.20;80.18;100683.44;5008050;28;20226;-66
2022/01/26 03:32:37;;;;;;;49.77;19.10;;;;;;;-1.97;79.15;100747.13;5007924;28;20300;-66
2022/01/26 03:34:51;;;;;;;46.57;18.40;;;;;;;-0.17;71.93;100632.09;5008064;28;20221;-66
2022/01/26 03:37:21;;;;;;;60.00;19.60;;;;;;;-1.44;76.37;100706.38;5006317;28;20228;-66
2022/01/26 03:39:50;;;;;;;42.40;19.63;;;;;;;0.07;70.39;100632.56;5010990;28;20237;-66
2022/01/26 03:42:17;;;;;;;43.63;18.40;;;;;;;0.14;69.19;100623.44;5021136;28;20899;-66
2022/01/26 03:44:44;;;;;;;48.60;20.73;;;;;;;0.26;69.35;100637.66;5014330;28;20234;-66
2022/01/26 03:47:12;;;;;;;63.13;21.20;;;;;;;-1.34;69.96;100640.53;5023162;28;20224;-66
2022/01/26 03:49:41;;;;;;;67.93;21.67;;;;;;;-0.43;71.47;100676.25;5013614;28;20757;-66
2022/01/26 03:52:10;;;;;;;57.17;21.93;;;;;;;0.62;67.66;100639.19;5015649;28;20236;-66
2022/01/26 03:54:37;;;;;;;58.20;23.10;;;;;;;-0.28;70.85;100668.53;5022091;28;20227;-66
2022/01/26 03:57:04;;;;;;;46.63;23.47;;;;;;;0.21;68.55;100645.78;5031250;28;20738;-66
2022/01/26 03:59:32;;;;;;;51.37;24.93;;;;;;;-0.48;70.03;100665.16;5022325;28;20241;-66
2022/01/26 04:01:59;;;;;;;55.37;25.93;;;;;;;-0.09;69.44;100658.75;5022761;28;20693;-66
2022/01/26 04:04:26;;;;;;;55.63;25.17;;;;;;;-0.34;70.68;100681.03;5031283;28;20232;-66
2022/01/26 04:06:54;;;;;;;60.87;27.93;;;;;;;0.60;67.55;100648.94;5016749;28;20228;-66
2022/01/26 04:09:21;;;;;;;62.27;26.93;;;;;;;0.14;68.46;100654.09;5010966;28;20737;-66
2022/01/26 04:11:50;;;;;;;63.80;27.00;;;;;;;-0.30;70.92;100681.72;5011098;28;20225;-66
2022/01/26 04:14:21;;;;;;;65.37;28.70;;;;;;;0.62;67.51;100647.06;5011015;28;20218;-66
2022/01/26 04:16:48;;;;;;;59.43;27.17;;;;;;;0.11;68.66;100654.25;5010429;28;20226;-66
2022/01/26 04:19:16;;;;;;;65.10;27.60;;;;;;;1.14;66.33;100672.16;5008889;28;20222;-66
2022/01/26 04:22:13;;;;;;;61.47;28.00;;;;;;;0.90;66.84;100650.78;5027840;28;20931;-66
2022/01/26 04:24:46;;;;;;;57.53;25.37;;;;;;;0.30;67.24;100633.94;5029242;28;20234;-66
2022/01/26 04:29:40;;;;;;;45.70;22.20;;;;;;;0.13;68.09;100674.19;5007238;28;20240;-72
2022/01/26 04:32:08;;;;;;;57.90;25.27;;;;;;;0.83;66.33;100674.75;4999710;28;20231;-72
2022/01/26 04:34:36;;;;;;;56.30;24.27;;;;;;;0.61;67.17;100682.97;5004683;28;20239;-66
2022/01/26 04:37:14;;;;;;;50.67;22.67;;;;;;;0.63;66.28;100675.03;5005794;28;20246;-66
2022/01/26 04:40:34;;;;;;;54.63;23.40;;;;;;;-0.13;68.46;100686.09;5003854;28;22186;-66
2022/01/26 04:42:50;;;;;;;45.77;20.57;;;;;;;0.14;68.57;100689.03;5008195;28;20698;-66
2022/01/26 04:45:18;;;;;;;56.00;22.47;;;;;;;0.48;67.41;100686.38;5007006;28;20232;-66
2022/01/26 04:47:44;;;;;;;49.43;20.90;;;;;;;-0.15;69.55;100703.69;5009371;28;20256;-67
2022/01/26 04:50:12;;;;;;;50.20;22.00;;;;;;;0.26;68.41;100711.97;5030884;28;20230;-66
2022/01/26 04:52:40;;;;;;;45.50;21.53;;;;;;;0.17;67.58;100675.75;5027079;28;20220;-66
2022/01/26 04:55:07;;;;;;;49.77;22.43;;;;;;;0.21;68.39;100702.66;5005224;28;20225;-66
2022/01/26 04:57:34;;;;;;;50.20;24.03;;;;;;;0.11;68.64;100693.59;5009296;28;20218;-66
2022/01/26 05:00:02;;;;;;;53.60;24.47;;;;;;;-0.00;69.34;100702.00;5009241;28;20931;-66
2022/01/26 05:02:29;;;;;;;59.40;23.43;;;;;;;0.50;67.83;100697.63;5010692;28;20230;-66
2022/01/26 05:04:56;;;;;;;48.53;24.43;;;;;;;0.80;66.56;100700.34;5009696;28;20225;-66
2022/01/26 05:07:23;;;;;;;54.13;25.27;;;;;;;0.11;68.60;100706.72;4993942;28;20223;-66
2022/01/26 05:09:50;;;;;;;54.43;24.57;;;;;;;0.01;68.31;100694.06;5009728;28;20246;-66
2022/01/26 05:12:17;;;;;;;59.23;25.20;;;;;;;-0.27;68.60;100696.44;5010427;28;20221;-67
2022/01/26 05:14:46;;;;;;;49.47;23.97;;;;;;;-1.20;72.91;100757.69;5007219;28;20225;-66
2022/01/26 05:17:15;;;;;;;56.73;24.43;;;;;;;-0.19;70.43;100736.22;5010133;28;20221;-66
2022/01/26 05:19:42;;;;;;;48.97;23.83;;;;;;;0.63;66.67;100701.28;5010298;28;20237;-66
2022/01/26 05:22:09;;;;;;;56.50;23.73;;;;;;;0.14;68.37;100706.56;5009881;28;20229;-66
2022/01/26 05:24:36;;;;;;;52.23;23.10;;;;;;;-0.59;70.10;100720.72;5009897;28;20914;-66
2022/01/26 05:27:03;;;;;;;49.83;22.03;;;;;;;-0.57;71.27;100752.94;5008299;28;20227;-66
2022/01/26 05:29:30;;;;;;;51.37;23.60;;;;;;;0.14;67.94;100710.03;5008521;28;20241;-66
2022/01/26 05:31:57;;;;;;;50.53;22.63;;;;;;;-0.27;70.73;100752.38;5009662;28;20236;-66
2022/01/26 05:34:24;;;;;;;48.07;22.17;;;;;;;-0.12;68.62;100709.63;5009676;28;20226;-66
2022/01/26 05:36:51;;;;;;;50.33;22.70;;;;;;;0.10;67.43;100681.41;5010106;28;20233;-66
2022/01/26 05:39:18;;;;;;;52.97;22.47;;;;;;;-1.86;75.98;100757.09;5008381;28;20733;-66
2022/01/26 05:41:45;;;;;;;47.27;22.33;;;;;;;0.08;70.32;100737.44;5009950;28;20237;-66
2022/01/26 05:44:12;;;;;;;53.37;23.70;;;;;;;0.42;67.34;100712.03;5009638;28;20225;-66
2022/01/26 05:46:43;;;;;;;51.30;21.47;;;;;;;0.23;68.02;100703.44;5006124;28;20736;-66
2022/01/26 05:49:12;;;;;;;48.23;22.33;;;;;;;0.38;67.39;100705.22;5018154;28;20228;-65
2022/01/26 05:51:40;;;;;;;49.60;21.67;;;;;;;-2.21;74.64;100725.50;5029794;28;20597;-67
2022/01/26 05:54:09;;;;;;;44.73;21.10;;;;;;;-2.72;79.23;100776.38;5027561;28;20221;-66
2022/01/26 05:56:36;;;;;;;49.43;21.37;;;;;;;-3.20;77.92;100660.81;5027706;28;20696;-66
2022/01/26 05:59:04;;;;;;;49.00;21.80;;;;;;;-1.50;77.27;100797.44;5029122;28;20229;-66
2022/01/26 06:01:31;;;;;;;46.97;20.97;;;;;;;-2.66;79.08;100776.16;5028377;28;20228;-66
2022/01/26 06:03:58;;;;;;;43.43;19.10;;;;;;;-3.40;80.82;100705.09;5029047;28;20241;-66
2022/01/26 06:06:25;;;;;;;40.57;20.07;;;;;;;-2.29;78.08;100771.19;5027595;28;20220;-66
2022/01/26 06:08:52;;;;;;;46.87;21.10;;;;;;;-2.66;81.96;100817.94;5027330;28;20229;-67
2022/01/26 06:11:19;;;;;;;42.63;20.20;;;;;;;-2.09;79.38;100801.69;5028841;28;20237;-66
2022/01/26 06:13:46;;;;;;;47.10;22.83;;;;;;;-2.75;77.35;100719.03;5028389;28;20239;-66
2022/01/26 06:16:14;;;;;;;45.90;21.53;;;;;;;-1.05;72.15;100681.88;5012015;28;20239;-66
2022/01/26 06:18:43;;;;;;;51.13;22.57;;;;;;;-1.99;77.52;100782.97;5008286;28;20217;-66
2022/01/26 06:21:10;;;;;;;40.73;20.37;;;;;;;-1.37;74.40;100713.97;5009251;28;20217;-66
2022/01/26 06:23:37;;;;;;;46.23;20.87;;;;;;;-1.14;71.08;100682.31;5008454;28;20237;-66
2022/01/26 06:26:04;;;;;;;48.07;21.37;;;;;;;-1.81;75.87;100751.69;5009224;28;20226;-66
2022/01/26 06:28:31;;;;;;;45.13;20.33;;;;;;;-3.08;79.04;100746.44;5007377;28;20613;-66
2022/01/26 06:31:03;;;;;;;52.57;21.87;;;;;;;-2.33;79.40;100801.81;5008599;28;20240;-66
2022/01/26 06:33:33;;;;;;;46.30;20.37;;;;;;;-2.30;79.69;100798.22;5007209;28;20237;-66
2022/01/26 06:36:00;;;;;;;42.33;21.20;;;;;;;-0.63;73.76;100703.44;5008468;28;20739;-66
2022/01/26 06:38:30;;;;;;;44.37;21.73;;;;;;;-0.02;69.11;100665.41;5008966;28;20218;-66
2022/01/26 06:41:00;;;;;;;51.67;23.70;;;;;;;0.06;68.33;100652.69;5008428;28;20914;-66
2022/01/26 06:43:30;;;;;;;44.10;21.87;;;;;;;-2.32;73.10;100670.22;5008174;28;20225;-66
2022/01/26 06:46:02;;;;;;;44.00;21.27;;;;;;;-3.02;80.30;100770.59;5004736;28;20237;-66
2022/01/26 06:51:05;;;;;;;39.60;18.77;;;;;;;-2.95;80.81;100791.22;5028711;28;20230;-66
2022/01/26 06:53:32;;;;;;;46.30;21.17;;;;;;;-1.88;75.63;100740.63;5027147;28;20229;-66
2022/01/26 06:55:59;;;;;;;43.67;20.73;;;;;;;-1.26;74.77;100740.50;5028230;28;20242;-66
2022/01/26 06:58:26;;;;;;;47.67;21.17;;;;;;;-1.84;73.12;100703.00;5027317;28;20228;-66
2022/01/26 07:00:53;;;;;;;42.33;22.07;;;;;;;-2.40;77.97;100787.31;5028503;28;20240;-66
2022/01/26 07:03:20;;;;;;;37.93;20.17;;;;;;;-1.01;74.30;100731.50;5027781;28;20220;-67
2022/01/26 07:05:47;;;;;;;43.53;21.57;;;;;;;-0.83;72.76;100724.53;5027840;28;20633;-66
2022/01/26 07:08:14;;;;;;;37.93;19.53;;;;;;;-0.97;71.97;100712.97;5028038;28;20303;-66
2022/01/26 07:10:44;;;;;;;40.13;20.20;;;;;;;-0.70;71.61;100733.50;5008958;28;20618;-66
2022/01/26 07:13:11;;;;;;;40.33;20.83;;;;;;;-0.71;71.65;100737.91;5003059;28;20228;-66
2022/01/26 07:21:25;;;;;;;37.63;19.53;;;;;;;-0.44;68.85;100734.84;5026294;28;20224;-66
2022/01/26 07:23:57;;;;;;;42.03;19.30;;;;;;;-0.22;68.41;100734.63;5022974;28;20566;-66
2022/01/26 07:26:30;;;;;;;34.17;18.60;;;;;;;0.17;67.41;100740.50;5028568;28;20239;-66
2022/01/26 07:29:05;;;;;;;39.23;19.53;;;;;;;0.18;67.02;100731.69;5008907;28;20236;-66
2022/01/26 07:31:33;;;;;;;34.27;17.93;;;;;;;0.32;66.42;100739.69;5004104;28;20228;-66
2022/01/26 07:34:00;;;;;;;37.13;19.20;;;;;;;0.42;66.01;100729.53;5003589;28;20227;-66
2022/01/26 07:36:27;;;;;;;35.13;19.43;;;;;;;0.22;66.02;100728.00;5006313;28;20217;-67
2022/01/26 07:39:04;;;;;;;35.10;17.70;;;;;;;-0.22;68.34;100755.59;5004219;28;20225;-66
2022/01/26 07:41:32;;;;;;;36.87;19.70;;;;;;;0.10;66.97;100753.09;5003727;28;20275;-66
2022/01/26 07:44:00;;;;;;;32.17;18.07;;;;;;;0.24;66.45;100765.50;5011629;28;20260;-66
2022/01/26 07:46:28;;;;;;;31.87;18.90;;;;;;;-0.72;69.56;100800.88;5008379;28;20489;-66
2022/01/26 07:48:55;;;;;;;32.63;17.60;;;;;;;-1.04;70.30;100824.19;5020122;28;20234;-66
2022/01/26 07:51:22;;;;;;;30.27;17.57;;;;;;;-0.66;68.58;100805.78;5031509;28;20229;-65
2022/01/26 07:53:49;;;;;;;31.83;17.40;;;;;;;0.72;64.57;100805.81;5030400;28;20233;-66
2022/01/26 07:56:17;;;;;;;33.97;18.37;;;;;;;0.18;65.29;100771.06;5031111;28;20225;-66
2022/01/26 07:58:47;;;;;;;35.07;18.07;;;;;;;-0.13;66.97;100788.38;5030958;28;20241;-65
2022/01/26 08:01:14;;;;;;;33.80;18.33;;;;;;;0.55;65.17;100808.50;5031195;28;20235;-66
2022/01/26 08:03:41;;;;;;;30.07;17.30;;;;;;;-0.34;66.53;100772.78;5012133;28;20225;-66
2022/01/26 08:06:15;;;;;;;30.30;17.83;;;;;;;-0.11;67.63;100816.19;5008915;28;20735;-66
2022/01/26 08:08:42;;;;;;;26.30;16.00;;;;;;;-0.37;67.63;100814.06;5011222;28;20870;-66
2022/01/26 08:11:09;;;;;;;28.13;16.70;;;;;;;0.15;65.08;100795.69;5011729;28;20228;-66
2022/01/26 08:13:36;;;;;;;29.13;16.73;;;;;;;0.38;65.71;100833.00;5010265;28;20983;-65
2022/01/26 08:16:03;;;;;;;28.47;15.97;;;;;;;-0.22;66.48;100794.94;5009338;28;20244;-66
2022/01/26 08:18:30;;;;;;;28.57;17.17;;;;;;;-0.16;66.50;100797.22;5011071;28;20226;-66
2022/01/26 08:21:04;;;;;;;27.13;16.37;;;;;;;0.97;63.91;100818.47;5011761;28;20767;-66
2022/01/26 08:23:35;;;;;;;30.17;16.07;;;;;;;0.10;65.07;100783.72;5010342;28;20229;-66
2022/01/26 08:26:03;;;;;;;29.17;16.70;;;;;;;-0.08;65.40;100780.28;5011508;28;20281;-66
2022/01/26 08:28:39;;;;;;;34.57;18.23;;;;;;;0.37;65.81;100808.56;5011678;28;20224;-66
2022/01/26 08:31:06;;;;;;;34.97;18.87;;;;;;;0.32;65.84;100815.81;5009000;28;20229;-66
2022/01/26 08:33:34;;;;;;;34.63;19.90;;;;;;;-0.07;66.36;100809.06;5002718;28;20225;-66
2022/01/26 08:36:01;;;;;;;30.10;18.87;;;;;;;0.39;65.79;100821.59;5004828;28;20227;-66
2022/01/26 08:38:28;;;;;;;28.10;17.50;;;;;;;0.70;64.84;100836.56;5011236;28;20232;-66
2022/01/26 08:40:55;;;;;;;28.93;16.60;;;;;;;0.19;66.05;100805.09;5010818;28;20727;-66
2022/01/26 08:43:22;;;;;;;31.57;17.47;;;;;;;0.09;66.27;100809.13;5010457;28;20234;-66
2022/01/26 08:45:49;;;;;;;32.00;17.77;;;;;;;0.85;64.33;100832.28;5007257;28;20268;-66
2022/01/26 08:48:16;;;;;;;33.30;18.27;;;;;;;0.32;65.07;100815.81;5012915;28;20713;-66
2022/01/26 08:50:43;;;;;;;34.63;19.20;;;;;;;0.48;65.19;100817.63;5030840;28;20235;-65
2022/01/26 08:53:10;;;;;;;34.27;19.00;;;;;;;-0.05;67.52;100861.41;5001991;28;20233;-66
2022/01/26 08:55:37;;;;;;;33.33;17.30;;;;;;;0.53;64.88;100857.63;5010844;28;20237;-66
2022/01/26 08:58:04;;;;;;;33.97;18.37;;;;;;;0.02;65.79;100824.31;5010515;28;21049;-66
2022/01/26 09:00:35;;;;;;;33.63;17.97;;;;;;;-0.92;68.82;100835.84;5010921;28;20234;-66
2022/01/26 09:03:14;;;;;;;25.57;15.67;;;;;;;-1.29;70.32;100847.97;5010008;28;20820;-66
2022/01/26 09:05:41;;;;;;;28.00;16.60;;;;;;;0.43;65.96;100846.75;5010680;28;20230;-66
2022/01/26 09:08:08;;;;;;;29.30;16.57;;;;;;;0.06;66.66;100832.88;5010647;28;20236;-66
2022/01/26 09:10:37;;;;;;;31.07;18.10;;;;;;;-0.04;67.24;100834.28;5010081;28;20244;-66
2022/01/26 09:13:04;;;;;;;29.47;17.00;;;;;;;-0.56;67.16;100816.69;5010089;28;20505;-66
2022/01/26 09:15:32;;;;;;;31.73;18.27;;;;;;;-0.49;68.75;100855.66;5007091;28;20232;-66
2022/01/26 09:18:02;;;;;;;27.43;17.17;;;;;;;-0.11;67.80;100845.06;5010554;28;20725;-65
2022/01/26 09:20:30;;;;;;;28.57;17.30;;;;;;;-0.82;71.15;100888.69;5008783;28;20236;-66
2022/01/26 09:22:57;;;;;;;25.23;15.47;;;;;;;-0.22;66.74;100805.44;5009607;28;20225;-66
2022/01/26 09:25:24;;;;;;;31.63;17.07;;;;;;;-0.66;68.23;100797.94;5009653;28;20226;-66
2022/01/26 09:27:51;;;;;;;25.53;14.13;;;;;;;-3.12;77.14;100793.63;5009549;28;20234;-66
2022/01/26 09:30:18;;;;;;;26.37;14.73;;;;;;;-1.26;71.19;100829.50;5010181;28;20225;-66
2022/01/26 09:32:45;;;;;;;20.23;12.93;;;;;;;-2.33;73.32;100814.88;5009508;28;20226;-65
2022/01/26 09:35:13;;;;;;;20.03;12.03;;;;;;;-0.67;69.59;100831.16;5009973;28;20604;-66
2022/01/26 09:37:41;;;;;;;21.90;13.63;;;;;;;-0.07;66.86;100835.28;5009686;28;20236;-66
2022/01/26 09:40:08;;;;;;;26.50;15.67;;;;;;;0.92;64.75;100836.25;5009780;28;20790;-65
2022/01/26 09:42:36;;;;;;;27.47;16.10;;;;;;;0.89;64.17;100811.94;5008736;28;20221;-67
2022/01/26 09:45:05;;;;;;;23.87;14.77;;;;;;;-1.35;69.94;100815.06;5003749;28;20225;-66
2022/01/26 09:47:31;;;;;;;22.67;14.50;;;;;;;-0.15;67.35;100811.22;5009186;28;20227;-66
2022/01/26 09:50:19;;;;;;;21.50;14.37;;;;;;;0.57;65.23;100828.50;4996579;28;20245;-66
2022/01/26 09:52:48;;;;;;;23.00;14.80;;;;;;;0.51;64.99;100812.22;5006422;28;20229;-66
2022/01/26 09:55:16;;;;;;;21.00;14.07;;;;;;;0.35;65.64;100806.91;5007644;28;20662;-66
2022/01/26 09:57:44;;;;;;;23.33;14.77;;;;;;;0.26;65.40;100795.13;5009816;28;20233;-66
2022/01/26 10:00:12;;;;;;;31.83;18.07;;;;;;;0.67;64.69;100825.38;5009417;28;20226;-65
2022/01/26 10:02:43;;;;;;;25.83;14.80;;;;;;;-0.32;65.73;100770.09;5007947;28;20229;-67
2022/01/26 10:05:16;;;;;;;18.63;12.77;;;;;;;-1.06;69.26;100823.38;5009214;28;20225;-64
2022/01/26 10:08:54;;;;;;;23.17;14.17;;;;;;;-0.76;68.57;100839.47;5009122;28;20280;-65
2022/01/26 10:19:05;;;;;;;22.67;15.10;;;;;;;-0.82;70.59;100841.53;5002299;28;20743;-66
2022/01/26 10:21:32;;;;;;;25.87;15.90;;;;;;;0.19;66.45;100801.63;5028858;28;20239;-66
2022/01/26 10:24:09;;;;;;;22.00;14.10;;;;;;;-1.19;68.19;100789.03;5026400;28;20239;-66
2022/01/26 10:26:36;;;;;;;21.07;13.83;;;;;;;-0.22;67.05;100830.78;5028099;28;20232;-66
2022/01/26 10:29:04;;;;;;;20.60;14.37;;;;;;;-0.26;67.56;100837.09;5028607;28;20228;-66
2022/01/26 10:31:34;;;;;;;20.63;14.67;;;;;;;0.38;65.06;100836.47;5027937;28;20600;-67
2022/01/26 10:34:10;;;;;;;22.57;16.07;;;;;;;0.15;65.88;100831.56;5014110;28;20229;-66
2022/01/26 10:36:47;;;;;;;22.40;14.60;;;;;;;-0.13;67.41;100846.06;5005211;28;20232;-67
2022/01/26 10:42:19;;;;;;;20.80;13.50;;;;;;;-1.00;68.25;100825.72;5007815;28;20250;-66
2022/01/26 10:45:07;;;;;;;22.40;12.03;;;;;;;-1.73;70.01;100832.47;5004072;28;20230;-67
2022/01/26 10:47:38;;;;;;;21.07;13.93;;;;;;;-0.33;68.40;100868.03;5007678;28;20229;-65
2022/01/26 10:53:16;;;;;;;20.77;14.47;;;;;;;-0.95;69.24;100860.41;5004558;28;20240;-66
2022/01/26 10:55:43;;;;;;;23.27;14.13;;;;;;;-0.19;67.71;100849.84;4989527;28;20316;-65
2022/01/26 10:58:11;;;;;;;25.13;14.60;;;;;;;0.02;67.32;100857.59;4993493;28;20225;-65
2022/01/26 11:03:55;;;;;;;21.07;13.87;;;;;;;-1.59;73.01;100856.25;5114079;27;20316;-64
2022/01/26 11:06:22;;;;;;;20.77;13.23;;;;;;;-0.94;71.15;100861.28;5088849;28;20236;-64
2022/01/26 11:08:50;;;;;;;21.53;13.73;;;;;;;-0.81;69.98;100844.06;5092304;28;20225;-65
2022/01/26 11:11:22;;;;;;;22.60;14.33;;;;;;;-0.64;69.95;100843.28;5091011;28;20223;-65
2022/01/26 11:13:49;;;;;;;21.07;12.10;;;;;;;-0.96;70.35;100823.84;5091586;28;20228;-64
2022/01/26 11:16:18;;;;;;;23.43;14.07;;;;;;;-0.70;69.20;100818.19;5085194;28;20227;-64
2022/01/26 11:18:54;;;;;;;24.97;14.30;;;;;;;-0.05;68.45;100827.31;5085203;28;20233;-65
2022/01/26 11:21:35;;;;;;;24.03;13.77;;;;;;;-0.07;68.43;100810.81;5084252;28;20226;-64
2022/01/26 11:24:16;;;;;;;24.00;12.57;;;;;;;-0.04;68.38;100814.13;5089187;28;20616;-64
2022/01/26 11:26:45;;;;;;;24.27;13.67;;;;;;;-0.16;68.66;100804.25;5091397;28;20235;-64
2022/01/26 11:29:23;;;;;;;25.83;14.33;;;;;;;0.01;67.95;100811.28;5093066;28;20909;-64
2022/01/26 11:32:06;;;;;;;26.50;12.20;;;;;;;-0.80;71.27;100816.09;5090652;28;20229;-64
2022/01/26 11:34:35;;;;;;;26.10;12.97;;;;;;;-0.11;69.18;100818.81;5093371;28;20223;-64
2022/01/26 11:37:06;;;;;;;25.50;13.03;;;;;;;-0.84;70.04;100802.31;5088881;28;20227;-64
2022/01/26 11:45:07;;;;;;;21.50;12.33;;;;;;;-0.87;71.33;100819.00;5089817;28;20226;-64
2022/01/26 11:47:37;;;;;;;24.33;13.30;;;;;;;0.73;66.87;100836.41;5088801;28;20225;-64
2022/01/26 11:50:12;;;;;;;20.70;12.83;;;;;;;-0.04;68.22;100780.03;5090096;28;20227;-65
2022/01/26 11:52:40;;;;;;;26.43;14.57;;;;;;;0.12;68.32;100806.34;5090572;28;20251;-65
2022/01/26 11:55:27;;;;;;;30.03;14.60;;;;;;;0.67;66.09;100802.59;5083994;28;20223;-64
2022/01/26 11:58:12;;;;;;;24.13;12.87;;;;;;;-0.45;68.37;100772.47;5088496;28;20758;-64
2022/01/26 12:01:33;;;;;;;19.30;11.07;;;;;;;-0.74;70.28;100805.34;5090440;28;20223;-64
2022/01/26 12:04:05;;;;;;;24.57;13.80;;;;;;;0.17;68.30;100793.00;5085498;28;20781;-65
2022/01/26 12:06:38;;;;;;;21.97;12.93;;;;;;;-0.59;69.19;100769.66;5088412;28;20222;-64
2022/01/26 12:09:07;;;;;;;23.57;13.90;;;;;;;-0.37;69.95;100795.69;5087329;28;20228;-64
2022/01/26 12:11:35;;;;;;;28.87;14.90;;;;;;;-0.18;69.64;100804.34;5082654;28;20572;-64
2022/01/26 12:14:09;;;;;;;23.60;14.77;;;;;;;0.43;68.37;100810.84;5077764;28;20255;-64
2022/01/26 12:16:43;;;;;;;26.67;14.97;;;;;;;0.57;67.04;100789.13;5069997;28;20226;-64
2022/01/26 12:38:25;;;;;;;19.23;11.00;;;;;;;-0.15;68.95;100800.72;5070828;28;20225;-64
2022/01/26 12:44:08;;;;;;;24.27;12.77;;;;;;;-0.42;69.41;100798.53;5026469;28;20650;-65
2022/01/26 12:46:38;;;;;;;21.53;11.70;;;;;;;-0.16;67.19;100770.16;5060721;28;20227;-64
2022/01/26 12:49:10;;;;;;;25.83;13.17;;;;;;;-0.20;67.80;100777.34;5070383;28;20231;-64
2022/01/26 12:51:45;;;;;;;20.77;12.07;;;;;;;-0.05;68.14;100795.84;5069661;28;20882;-65
2022/01/26 12:54:13;;;;;;;19.10;11.77;;;;;;;0.26;67.31;100805.63;5069814;28;20247;-65
2022/01/26 12:56:40;;;;;;;23.47;14.13;;;;;;;0.48;66.68;100810.59;5069993;28;20225;-64
2022/01/26 12:59:11;;;;;;;22.23;12.77;;;;;;;-0.05;66.18;100743.38;5069004;28;20228;-65
2022/01/26 13:01:39;;;;;;;21.30;12.97;;;;;;;0.36;67.25;100791.09;5069463;28;20224;-65
2022/01/26 13:04:10;;;;;;;22.33;12.93;;;;;;;-0.25;67.61;100765.41;5069472;28;20239;-65
2022/01/26 13:06:51;;;;;;;21.93;13.27;;;;;;;-0.04;67.49;100790.50;5073116;28;20227;-64
2022/01/26 13:09:30;;;;;;;23.73;12.20;;;;;;;0.14;68.02;100812.34;5069131;28;20228;-65
2022/01/26 13:11:58;;;;;;;18.90;11.50;;;;;;;0.24;66.93;100794.38;5076007;28;20234;-64
2022/01/26 13:14:35;;;;;;;18.13;12.07;;;;;;;0.21;66.92;100810.25;5072478;28;20218;-64
2022/01/26 13:17:32;;;;;;;19.77;12.47;;;;;;;-0.24;68.39;100803.78;5073680;28;20224;-65
2022/01/26 13:36:37;;;;;;;19.87;12.13;;;;;;;0.78;64.98;100839.63;5032708;28;20231;-64
2022/01/26 13:41:52;;;;;;;21.73;11.53;;;;;;;-0.25;67.59;100815.22;5068703;28;20860;-65
2022/01/26 13:47:42;;;;;;;18.00;10.40;;;;;;;0.26;65.83;100811.72;5069344;28;20227;-65
2022/01/26 13:52:28;;;;;;;17.07;10.57;;;;;;;0.33;64.90;100793.88;5069218;28;20623;-64
2022/01/26 14:00:10;;;;;;;24.20;13.43;;;;;;;0.34;65.82;100829.69;5068694;28;20219;-65
2022/01/26 14:02:38;;;;;;;19.73;11.87;;;;;;;0.37;65.45;100821.69;5069025;28;20219;-65
2022/01/26 14:05:06;;;;;;;21.73;12.90;;;;;;;0.13;66.28;100833.41;5068195;28;20228;-65
2022/01/26 14:07:33;;;;;;;23.23;14.63;;;;;;;-0.10;65.99;100809.22;5068357;28;20248;-65
2022/01/26 14:10:00;;;;;;;26.00;13.13;;;;;;;-0.39;68.15;100847.34;5068689;28;20235;-65
2022/01/26 14:12:31;;;;;;;17.27;10.80;;;;;;;-0.19;67.05;100839.38;5067109;28;20234;-65